Terminal Aerodrome Forecast
Issued by NWS

Home | Current Version | Previous Version | Graphics & Text | Print | Product List | Glossary On
Versions: 1 2 3 4 5 6 7 8 9 10 11 12 13 14 15
000
FTUS43 KGRB 011140
TAFCWA
TAF
KCWA 011140Z 0112/0212 28006KT P6SM -SN OVC006
     FM011400 29007KT P6SM -SN OVC010
     FM011600 30008KT P6SM OVC018=

USA.gov is the U.S. government's official web portal to all federal, state and local government web resources and services.